Airfield :
LOGIN :

Register | Disclaimer

   EN    FR    IT 

 










Legend :    VFR   Marginal VFR   IFR   Intensive IFR   Very Intensive IFR
Visi :
Ceiling :
>= 8 km
>= 3000ft
5 to 8 km
1000 to 3000 ft
1500m to 5 km
500 to 1000 ft
800 to 1500m
200 to 500 ft
< 800m
< 200 ft
Symbols :   Thunderstorms  Fog  Heavy snow  Heavy precipitations  Wind > 20 kt
SIGMETs :     Misc.  Thunderstorms  Icing  Turbulence  Mountain Waves  Volcanic Ashes






- Airport Elevation : 12 ft
- IATA code : NCE


LFMN - Nice

CURRENT METAR :
  • 060600Z 33008KT 9999 FEW030 BKN045 BKN100 11/03 Q1022 NOSIG

EXPIRED METARs :
  • 060530Z 33008KT 9999 BKN045 BKN100 11/03 Q1022 NOSIG
  • 060500Z 32009KT 9999 SCT033 BKN046 BKN100 11/03 Q1022 NOSIG
  • 060400Z 32007KT 9999 SCT033 BKN043 11/04 Q1022 NOSIG
  • 060330Z 33007KT 9999 SCT033 BKN043 11/03 Q1022 NOSIG

TAF TAF LFMN
Valid from the 06 at 03:00 until the 07 at 09:00 UTC


060200Z 0603/0709 34010KT 9999 BKN060
PROB30
TEMPO 0603/0605 SHRA
BECMG 0611/0613 14005KT NSC
BECMG 0617/0619 34010KT
PROB30
TEMPO 0618/0621 BKN020
ATIS : +33 4 93 17 21 16



MET'MAP, your aeronautical weather chart ! - Copyright ORBIFLY December 2007 - Disclaimer

ORBIFLY MET'MAP TEAM :

Programming & Development : Alexandra Zaïnal
Concept & original design : Baudouin d'Aumeries
Assistance for programming : Marc-Olivier Méhu
Technical & hardware support : Manuel Goepfert

Contact : metmap@orbifly.com




SOURCES & CREDITS :

   NOAA